»·PEaware :: N447DM CYZT-CYZP

N447DM :: CYZT-CYZP

FLIGHT INFORMATION

Flight Status: Arrived
Operator: Privately registered:
United States
More flights under this callsign
Pilot: Sven R. (15096)
Aircraft: BEECH AIRCRAFT TWIN BEECH
(BE18)
More flights by this aircraft type
Origin: CYZT Port Hardy
Canada
Destination: CYZP Sandspit
Canada
More flights between these airports :: More routes between these airports
Route: DCT
File this flight plan on PilotEdge
Remarks:
Altitude:
(Current/Filed)
3,500ft
Speed:
(Current/Filed)
100kts
Departed: 26-May-17 06:03 AM
Arrived: 26-May-17 07:33 AM
Distance/Time
Traveled:
226nm/1:30
Distance/Time
To Go:
Arrived

Flight Plot

Page will automatically refresh every two minutes.

Flight plan parsing failed; only flown route is shown


Map Options




Map Legend


Flown Route
Filed Route
Departure Airport
Arrival Airport
Navaid (VOR, NDB)
Fix

Horizontal Profiles

Position Reports

Time Latitude Longitude Heading Altitude Ground
Speed
26-May-17 05:58 50.682436 -127.376337 29 72ft 0kts
26-May-17 05:59 50.682436 -127.376337 29 72ft 0kts
26-May-17 06:00 50.682436 -127.376337 29 72ft 0kts
26-May-17 06:01 50.682436 -127.376337 29 72ft 0kts
26-May-17 06:02 50.682203 -127.375786 180 72ft 10kts
26-May-17 06:03 50.680449 -127.370971 92 66ft 23kts
26-May-17 06:04 50.679915 -127.359144 104 34ft 11kts
26-May-17 06:05 50.680031 -127.360845 270 36ft 58kts
26-May-17 06:06 50.692792 -127.397514 304 1577ft 119kts
26-May-17 06:07 50.724699 -127.446956 317 2080ft 182kts
26-May-17 06:08 50.761322 -127.502229 314 2667ft 182kts
26-May-17 06:09 50.795502 -127.556178 313 3249ft 171kts
26-May-17 06:10 50.828503 -127.608703 311 3495ft 174kts
26-May-17 06:11 50.860968 -127.660551 313 3501ft 180kts
26-May-17 06:12 50.893573 -127.712603 313 3500ft 185kts
26-May-17 06:13 50.929419 -127.770032 313 3500ft 186kts
26-May-17 06:14 50.962347 -127.822920 313 3500ft 186kts
26-May-17 06:15 50.992077 -127.870768 313 3500ft 186kts
26-May-17 06:16 51.021956 -127.918951 313 3500ft 186kts
26-May-17 06:17 51.051110 -127.966044 313 3500ft 186kts
26-May-17 06:18 51.081126 -128.014632 313 3499ft 186kts
26-May-17 06:19 51.109595 -128.060812 313 3499ft 186kts
26-May-17 06:20 51.139244 -128.109008 313 3499ft 186kts
26-May-17 06:21 51.170983 -128.160698 313 3499ft 186kts
26-May-17 06:22 51.200894 -128.209499 313 3499ft 186kts
26-May-17 06:23 51.231632 -128.259792 313 3499ft 186kts
26-May-17 06:24 51.262573 -128.310506 313 3499ft 186kts
26-May-17 06:25 51.293641 -128.361508 313 3499ft 186kts
26-May-17 06:26 51.323703 -128.410963 313 3499ft 186kts
26-May-17 06:27 51.356009 -128.464250 313 3499ft 186kts
26-May-17 06:28 51.389922 -128.520276 313 3499ft 186kts
26-May-17 06:29 51.423518 -128.575911 313 3499ft 186kts
26-May-17 06:30 51.454365 -128.627104 313 3499ft 186kts
26-May-17 06:31 51.486972 -128.681328 312 3500ft 186kts
26-May-17 06:32 51.516632 -128.730766 312 3500ft 186kts
26-May-17 06:33 51.545969 -128.779758 312 3500ft 186kts
26-May-17 06:34 51.575403 -128.829008 312 3500ft 186kts
26-May-17 06:35 51.605530 -128.879533 312 3500ft 186kts
26-May-17 06:36 51.635632 -128.930126 312 3499ft 186kts
26-May-17 06:37 51.665902 -128.981103 312 3499ft 186kts
26-May-17 06:38 51.695587 -129.031190 312 3499ft 186kts
26-May-17 06:39 51.725003 -129.080919 312 3499ft 186kts
26-May-17 06:40 51.754510 -129.130893 312 3499ft 186kts
26-May-17 06:41 51.783750 -129.180516 312 3499ft 186kts
26-May-17 06:42 51.812817 -129.229953 312 3499ft 186kts
26-May-17 06:43 51.841411 -129.278688 312 3499ft 186kts
26-May-17 06:44 51.868677 -129.325242 312 3499ft 186kts
26-May-17 06:45 51.895814 -129.371666 312 3499ft 186kts
26-May-17 06:46 51.922614 -129.417583 311 3503ft 186kts
26-May-17 06:47 51.948653 -129.462287 311 3509ft 188kts
26-May-17 06:48 51.974748 -129.507213 312 3517ft 190kts
26-May-17 06:49 52.000896 -129.552413 314 3528ft 192kts
26-May-17 06:50 52.026247 -129.596039 315 3534ft 191kts
26-May-17 06:51 52.050366 -129.637708 315 3539ft 190kts
26-May-17 06:52 52.077581 -129.684837 314 3541ft 188kts
26-May-17 06:53 52.102745 -129.728508 314 3543ft 187kts
26-May-17 06:54 52.131060 -129.777721 314 3542ft 188kts
26-May-17 06:55 52.157678 -129.824047 314 3538ft 189kts
26-May-17 06:56 52.189825 -129.880228 314 3541ft 189kts
26-May-17 06:57 52.221059 -129.934874 314 3550ft 185kts
26-May-17 06:58 52.255006 -129.994360 313 3559ft 180kts
26-May-17 06:59 52.288629 -130.053414 311 3567ft 177kts
26-May-17 07:00 52.321952 -130.112239 310 3572ft 177kts
26-May-17 07:01 52.355351 -130.171371 311 3568ft 176kts
26-May-17 07:02 52.388632 -130.230261 311 3566ft 176kts
26-May-17 07:03 52.421943 -130.289301 311 3568ft 176kts
26-May-17 07:04 52.455089 -130.348257 310 3572ft 177kts
26-May-17 07:05 52.488442 -130.407790 310 3572ft 177kts
26-May-17 07:06 52.521673 -130.467214 310 3571ft 177kts
26-May-17 07:07 52.554854 -130.526674 310 3571ft 177kts
26-May-17 07:08 52.588036 -130.586288 310 3571ft 176kts
26-May-17 07:09 52.621202 -130.645984 310 3571ft 176kts
26-May-17 07:10 52.654238 -130.705595 310 3573ft 177kts
26-May-17 07:11 52.686760 -130.764412 309 3569ft 160kts
26-May-17 07:12 52.714773 -130.815202 309 3571ft 143kts
26-May-17 07:13 52.740995 -130.862876 309 3572ft 139kts
26-May-17 07:14 52.764218 -130.912613 293 3567ft 137kts
26-May-17 07:15 52.780842 -130.971741 293 3276ft 150kts
26-May-17 07:16 52.798915 -131.035897 293 2780ft 156kts
26-May-17 07:17 52.817427 -131.101368 293 2278ft 157kts
26-May-17 07:18 52.835939 -131.166706 293 1778ft 158kts
26-May-17 07:19 52.854604 -131.232617 293 1275ft 158kts
26-May-17 07:20 52.881007 -131.288036 319 998ft 151kts
26-May-17 07:21 52.910669 -131.328772 316 998ft 142kts
26-May-17 07:22 52.940808 -131.370109 318 999ft 140kts
26-May-17 07:23 52.971473 -131.410059 318 999ft 140kts
26-May-17 07:24 53.002141 -131.450020 318 999ft 140kts
26-May-17 07:25 53.032760 -131.489937 318 999ft 140kts
26-May-17 07:26 53.060316 -131.534510 310 999ft 138kts
26-May-17 07:27 53.086613 -131.581720 311 999ft 139kts
26-May-17 07:28 53.114227 -131.624978 316 999ft 139kts
26-May-17 07:29 53.140661 -131.662117 315 997ft 116kts
26-May-17 07:30 53.165210 -131.695352 316 1016ft 107kts
26-May-17 07:31 53.186712 -131.723596 316 999ft 97kts
26-May-17 07:32 53.207080 -131.749949 316 925ft 88kts
26-May-17 07:33 53.225841 -131.772837 318 643ft 80kts
26-May-17 07:34 53.238313 -131.792127 310 357ft 70kts
26-May-17 07:35 53.251007 -131.810096 324 29ft 0kts
26-May-17 07:36 53.253759 -131.813089 319 28ft 21kts
26-May-17 07:37 53.253835 -131.816536 94 30ft 0kts
26-May-17 07:38 53.253835 -131.816536 94 30ft 0kts
26-May-17 07:39 53.253835 -131.816536 94 30ft 0kts
26-May-17 07:40 53.253835 -131.816536 94 30ft 0kts

Navigation Log

Ident Type
Flight plan parsing failed, navigation log unavailable